sensor_id;sensor_type;location;lat;lon;timestamp;pressure;altitude;pressure_sealevel;temperature;humidity
76124;BME280;65173;48.066;20.976;2023-08-07T00:01:17;99201.78;;;15.92;100.00
76124;BME280;65173;48.066;20.976;2023-08-07T00:04:20;99200.19;;;15.84;100.00
76124;BME280;65173;48.066;20.976;2023-08-07T00:07:22;99209.00;;;15.84;100.00
76124;BME280;65173;48.066;20.976;2023-08-07T00:10:27;99215.94;;;15.85;100.00
76124;BME280;65173;48.066;20.976;2023-08-07T00:13:29;99220.19;;;15.90;100.00
76124;BME280;65173;48.066;20.976;2023-08-07T00:16:32;99216.38;;;15.98;100.00
76124;BME280;65173;48.066;20.976;2023-08-07T00:19:35;99228.34;;;16.04;100.00
76124;BME280;65173;48.066;20.976;2023-08-07T00:22:37;99231.28;;;15.85;100.00
76124;BME280;65173;48.066;20.976;2023-08-07T00:25:40;99236.28;;;15.86;100.00
76124;BME280;65173;48.066;20.976;2023-08-07T00:28:42;99236.22;;;15.79;100.00
76124;BME280;65173;48.066;20.976;2023-08-07T00:31:46;99230.56;;;15.91;100.00
76124;BME280;65173;48.066;20.976;2023-08-07T00:34:49;99248.31;;;16.03;100.00
76124;BME280;65173;48.066;20.976;2023-08-07T00:37:51;99248.41;;;16.21;100.00
76124;BME280;65173;48.066;20.976;2023-08-07T00:40:54;99255.19;;;16.01;100.00
76124;BME280;65173;48.066;20.976;2023-08-07T00:43:57;99256.75;;;16.05;100.00
76124;BME280;65173;48.066;20.976;2023-08-07T00:47:00;99262.41;;;15.89;100.00
76124;BME280;65173;48.066;20.976;2023-08-07T00:50:03;99263.38;;;15.67;100.00
76124;BME280;65173;48.066;20.976;2023-08-07T00:53:06;99262.66;;;15.70;100.00
76124;BME280;65173;48.066;20.976;2023-08-07T00:56:09;99267.25;;;15.70;100.00
76124;BME280;65173;48.066;20.976;2023-08-07T00:59:13;99266.28;;;15.92;100.00
76124;BME280;65173;48.066;20.976;2023-08-07T01:02:17;99273.66;;;16.06;100.00
76124;BME280;65173;48.066;20.976;2023-08-07T01:05:23;99259.72;;;15.89;100.00
76124;BME280;65173;48.066;20.976;2023-08-07T01:08:27;99262.34;;;15.82;100.00
76124;BME280;65173;48.066;20.976;2023-08-07T01:11:39;99258.75;;;15.64;100.00
76124;BME280;65173;48.066;20.976;2023-08-07T01:14:52;99259.38;;;15.50;100.00
76124;BME280;65173;48.066;20.976;2023-08-07T01:17:58;99274.28;;;15.85;100.00
76124;BME280;65173;48.066;20.976;2023-08-07T01:21:03;99272.41;;;15.89;100.00
76124;BME280;65173;48.066;20.976;2023-08-07T01:24:06;99281.59;;;15.88;100.00
76124;BME280;65173;48.066;20.976;2023-08-07T01:27:35;99272.44;;;15.96;100.00
76124;BME280;65173;48.066;20.976;2023-08-07T01:30:42;99273.63;;;16.02;100.00
76124;BME280;65173;48.066;20.976;2023-08-07T01:34:00;99282.81;;;15.94;100.00
76124;BME280;65173;48.066;20.976;2023-08-07T01:37:05;99273.91;;;15.86;100.00
76124;BME280;65173;48.066;20.976;2023-08-07T01:40:10;99285.09;;;15.95;100.00
76124;BME280;65173;48.066;20.976;2023-08-07T01:43:14;99288.19;;;15.97;100.00
76124;BME280;65173;48.066;20.976;2023-08-07T01:46:18;99280.34;;;15.78;100.00
76124;BME280;65173;48.066;20.976;2023-08-07T01:49:22;99285.56;;;15.57;100.00
76124;BME280;65173;48.066;20.976;2023-08-07T01:52:25;99282.94;;;15.64;100.00
76124;BME280;65173;48.066;20.976;2023-08-07T01:55:28;99295.53;;;15.60;100.00
76124;BME280;65173;48.066;20.976;2023-08-07T01:58:31;99294.97;;;15.44;100.00
76124;BME280;65173;48.066;20.976;2023-08-07T02:01:34;99297.63;;;15.37;100.00
76124;BME280;65173;48.066;20.976;2023-08-07T02:04:37;99297.47;;;15.22;100.00
76124;BME280;65173;48.066;20.976;2023-08-07T02:07:40;99295.25;;;15.32;100.00
76124;BME280;65173;48.066;20.976;2023-08-07T02:10:43;99301.75;;;15.31;100.00
76124;BME280;65173;48.066;20.976;2023-08-07T02:13:46;99300.16;;;15.22;100.00
76124;BME280;65173;48.066;20.976;2023-08-07T02:16:48;99296.56;;;15.11;100.00
76124;BME280;65173;48.066;20.976;2023-08-07T02:19:51;99298.78;;;15.02;100.00
76124;BME280;65173;48.066;20.976;2023-08-07T02:22:54;99299.88;;;15.35;100.00
76124;BME280;65173;48.066;20.976;2023-08-07T02:25:56;99303.75;;;15.37;100.00
76124;BME280;65173;48.066;20.976;2023-08-07T02:28:59;99302.75;;;15.52;100.00
76124;BME280;65173;48.066;20.976;2023-08-07T02:32:02;99307.72;;;15.50;100.00
76124;BME280;65173;48.066;20.976;2023-08-07T02:35:06;99315.69;;;15.40;100.00
76124;BME280;65173;48.066;20.976;2023-08-07T02:38:09;99310.31;;;15.06;100.00
76124;BME280;65173;48.066;20.976;2023-08-07T02:41:12;99314.72;;;15.21;100.00
76124;BME280;65173;48.066;20.976;2023-08-07T02:44:15;99319.47;;;15.35;100.00
76124;BME280;65173;48.066;20.976;2023-08-07T02:47:19;99321.44;;;15.42;100.00
76124;BME280;65173;48.066;20.976;2023-08-07T02:50:22;99324.78;;;15.32;100.00
76124;BME280;65173;48.066;20.976;2023-08-07T02:53:27;99326.69;;;15.31;100.00
76124;BME280;65173;48.066;20.976;2023-08-07T02:56:29;99320.25;;;15.06;100.00
76124;BME280;65173;48.066;20.976;2023-08-07T02:59:32;99324.63;;;14.84;100.00
76124;BME280;65173;48.066;20.976;2023-08-07T03:02:35;99323.19;;;14.93;100.00
76124;BME280;65173;48.066;20.976;2023-08-07T03:05:37;99320.47;;;14.90;100.00
76124;BME280;65173;48.066;20.976;2023-08-07T03:08:40;99319.78;;;14.67;100.00
76124;BME280;65173;48.066;20.976;2023-08-07T03:11:43;99332.31;;;14.89;100.00
76124;BME280;65173;48.066;20.976;2023-08-07T03:14:46;99322.91;;;14.69;100.00
76124;BME280;65173;48.066;20.976;2023-08-07T03:17:48;99334.88;;;14.78;100.00
76124;BME280;65173;48.066;20.976;2023-08-07T03:20:51;99337.81;;;14.66;100.00
76124;BME280;65173;48.066;20.976;2023-08-07T03:23:54;99345.31;;;14.57;100.00
76124;BME280;65173;48.066;20.976;2023-08-07T03:26:56;99356.19;;;14.41;100.00
76124;BME280;65173;48.066;20.976;2023-08-07T03:29:59;99366.56;;;14.43;100.00
76124;BME280;65173;48.066;20.976;2023-08-07T03:33:04;99367.53;;;14.84;100.00
76124;BME280;65173;48.066;20.976;2023-08-07T03:36:07;99366.63;;;15.03;100.00
76124;BME280;65173;48.066;20.976;2023-08-07T03:39:10;99355.25;;;14.83;100.00
76124;BME280;65173;48.066;20.976;2023-08-07T03:42:14;99356.44;;;14.85;100.00
76124;BME280;65173;48.066;20.976;2023-08-07T03:45:20;99364.34;;;14.75;100.00
76124;BME280;65173;48.066;20.976;2023-08-07T03:48:22;99356.59;;;14.70;100.00
76124;BME280;65173;48.066;20.976;2023-08-07T03:51:25;99369.50;;;14.61;100.00
76124;BME280;65173;48.066;20.976;2023-08-07T03:54:29;99363.72;;;14.85;100.00
76124;BME280;65173;48.066;20.976;2023-08-07T03:57:33;99373.03;;;14.94;100.00
76124;BME280;65173;48.066;20.976;2023-08-07T04:00:36;99376.59;;;15.02;100.00
76124;BME280;65173;48.066;20.976;2023-08-07T04:03:38;99384.13;;;14.93;100.00
76124;BME280;65173;48.066;20.976;2023-08-07T04:06:41;99383.53;;;14.77;100.00
76124;BME280;65173;48.066;20.976;2023-08-07T04:09:46;99378.88;;;14.74;100.00
76124;BME280;65173;48.066;20.976;2023-08-07T04:12:48;99385.22;;;14.88;100.00
76124;BME280;65173;48.066;20.976;2023-08-07T04:15:52;99391.78;;;15.21;100.00
76124;BME280;65173;48.066;20.976;2023-08-07T04:18:54;99386.28;;;15.10;100.00
76124;BME280;65173;48.066;20.976;2023-08-07T04:21:57;99388.34;;;15.24;100.00
76124;BME280;65173;48.066;20.976;2023-08-07T04:24:59;99387.19;;;15.55;100.00
76124;BME280;65173;48.066;20.976;2023-08-07T04:28:02;99387.41;;;15.73;100.00
76124;BME280;65173;48.066;20.976;2023-08-07T04:31:06;99392.56;;;15.88;100.00
76124;BME280;65173;48.066;20.976;2023-08-07T04:34:08;99391.78;;;15.54;100.00
76124;BME280;65173;48.066;20.976;2023-08-07T04:37:11;99387.00;;;15.37;100.00
76124;BME280;65173;48.066;20.976;2023-08-07T04:40:14;99390.47;;;15.71;100.00
76124;BME280;65173;48.066;20.976;2023-08-07T04:43:18;99398.69;;;15.89;100.00
76124;BME280;65173;48.066;20.976;2023-08-07T04:46:23;99400.00;;;16.06;100.00
76124;BME280;65173;48.066;20.976;2023-08-07T04:49:25;99402.34;;;16.11;100.00
76124;BME280;65173;48.066;20.976;2023-08-07T04:52:28;99417.88;;;16.28;100.00
76124;BME280;65173;48.066;20.976;2023-08-07T04:55:31;99414.03;;;16.32;100.00
76124;BME280;65173;48.066;20.976;2023-08-07T04:58:34;99413.63;;;16.30;100.00
76124;BME280;65173;48.066;20.976;2023-08-07T05:05:58;99404.59;;;16.05;100.00
76124;BME280;65173;48.066;20.976;2023-08-07T05:09:00;99413.78;;;16.01;100.00
76124;BME280;65173;48.066;20.976;2023-08-07T05:12:04;99410.91;;;16.23;100.00
76124;BME280;65173;48.066;20.976;2023-08-07T05:15:07;99412.25;;;16.51;100.00
76124;BME280;65173;48.066;20.976;2023-08-07T05:18:10;99411.94;;;16.56;100.00
76124;BME280;65173;48.066;20.976;2023-08-07T05:21:12;99411.78;;;16.89;100.00
76124;BME280;65173;48.066;20.976;2023-08-07T05:24:15;99411.84;;;17.04;100.00
76124;BME280;65173;48.066;20.976;2023-08-07T05:27:18;99414.25;;;17.23;100.00
76124;BME280;65173;48.066;20.976;2023-08-07T05:30:20;99419.72;;;17.33;100.00
76124;BME280;65173;48.066;20.976;2023-08-07T05:33:23;99429.78;;;17.58;100.00
76124;BME280;65173;48.066;20.976;2023-08-07T05:36:26;99428.25;;;17.57;100.00
76124;BME280;65173;48.066;20.976;2023-08-07T05:39:28;99425.88;;;17.38;100.00
76124;BME280;65173;48.066;20.976;2023-08-07T05:42:31;99422.03;;;17.39;100.00
76124;BME280;65173;48.066;20.976;2023-08-07T05:45:34;99425.97;;;17.62;100.00
76124;BME280;65173;48.066;20.976;2023-08-07T05:48:36;99429.88;;;17.79;100.00
76124;BME280;65173;48.066;20.976;2023-08-07T05:51:39;99434.50;;;17.79;100.00
76124;BME280;65173;48.066;20.976;2023-08-07T05:54:41;99433.78;;;17.89;100.00
76124;BME280;65173;48.066;20.976;2023-08-07T05:57:44;99446.09;;;17.90;100.00
76124;BME280;65173;48.066;20.976;2023-08-07T06:00:46;99429.88;;;17.72;100.00
76124;BME280;65173;48.066;20.976;2023-08-07T06:03:49;99439.91;;;17.79;100.00
76124;BME280;65173;48.066;20.976;2023-08-07T06:06:51;99443.72;;;17.74;100.00
76124;BME280;65173;48.066;20.976;2023-08-07T06:09:54;99451.34;;;17.58;100.00
76124;BME280;65173;48.066;20.976;2023-08-07T06:12:57;99449.03;;;17.60;100.00
76124;BME280;65173;48.066;20.976;2023-08-07T06:16:00;99449.34;;;17.33;100.00
76124;BME280;65173;48.066;20.976;2023-08-07T06:19:02;99458.06;;;17.13;100.00
76124;BME280;65173;48.066;20.976;2023-08-07T06:22:18;99453.28;;;17.61;100.00
76124;BME280;65173;48.066;20.976;2023-08-07T06:25:21;99461.84;;;17.70;100.00
76124;BME280;65173;48.066;20.976;2023-08-07T06:28:23;99469.63;;;18.03;100.00
76124;BME280;65173;48.066;20.976;2023-08-07T06:31:26;99463.50;;;18.38;100.00
76124;BME280;65173;48.066;20.976;2023-08-07T06:34:29;99462.34;;;18.54;100.00
76124;BME280;65173;48.066;20.976;2023-08-07T06:37:31;99463.91;;;18.80;100.00
76124;BME280;65173;48.066;20.976;2023-08-07T06:40:37;99473.47;;;19.20;100.00
76124;BME280;65173;48.066;20.976;2023-08-07T06:43:40;99475.59;;;19.74;100.00
76124;BME280;65173;48.066;20.976;2023-08-07T06:46:42;99478.84;;;20.18;100.00
76124;BME280;65173;48.066;20.976;2023-08-07T06:49:45;99479.28;;;20.68;100.00
76124;BME280;65173;48.066;20.976;2023-08-07T06:52:48;99485.13;;;20.00;100.00
76124;BME280;65173;48.066;20.976;2023-08-07T06:55:50;99484.31;;;20.66;100.00
76124;BME280;65173;48.066;20.976;2023-08-07T06:58:54;99481.69;;;21.00;100.00
76124;BME280;65173;48.066;20.976;2023-08-07T07:01:57;99487.56;;;21.32;100.00
76124;BME280;65173;48.066;20.976;2023-08-07T07:05:00;99487.97;;;20.90;100.00
76124;BME280;65173;48.066;20.976;2023-08-07T07:08:03;99488.75;;;21.31;100.00
76124;BME280;65173;48.066;20.976;2023-08-07T07:11:05;99488.75;;;22.23;98.67
76124;BME280;65173;48.066;20.976;2023-08-07T07:14:09;99488.00;;;20.86;100.00
76124;BME280;65173;48.066;20.976;2023-08-07T07:17:13;99484.47;;;20.93;100.00
76124;BME280;65173;48.066;20.976;2023-08-07T07:20:15;99481.09;;;21.23;100.00
76124;BME280;65173;48.066;20.976;2023-08-07T07:23:18;99482.31;;;21.82;100.00
76124;BME280;65173;48.066;20.976;2023-08-07T07:26:20;99485.28;;;20.86;96.83
76124;BME280;65173;48.066;20.976;2023-08-07T07:29:23;99478.75;;;22.43;92.67
76124;BME280;65173;48.066;20.976;2023-08-07T07:32:26;99480.22;;;23.37;91.56
76124;BME280;65173;48.066;20.976;2023-08-07T07:35:29;99488.03;;;23.75;89.66
76124;BME280;65173;48.066;20.976;2023-08-07T07:38:31;99493.63;;;23.28;92.43
76124;BME280;65173;48.066;20.976;2023-08-07T07:41:34;99489.44;;;22.54;86.59
76124;BME280;65173;48.066;20.976;2023-08-07T07:44:36;99499.13;;;21.70;92.47
76124;BME280;65173;48.066;20.976;2023-08-07T07:47:40;99499.06;;;21.43;94.52
76124;BME280;65173;48.066;20.976;2023-08-07T07:50:43;99500.22;;;21.05;95.69
76124;BME280;65173;48.066;20.976;2023-08-07T07:57:41;99502.97;;;21.73;98.60
76124;BME280;65173;48.066;20.976;2023-08-07T08:00:43;99507.59;;;22.83;84.86
76124;BME280;65173;48.066;20.976;2023-08-07T08:03:46;99517.16;;;22.18;86.62
76124;BME280;65173;48.066;20.976;2023-08-07T08:06:48;99522.34;;;22.05;88.54
76124;BME280;65173;48.066;20.976;2023-08-07T08:09:51;99519.22;;;22.07;88.10
76124;BME280;65173;48.066;20.976;2023-08-07T08:12:55;99528.75;;;21.20;88.18
76124;BME280;65173;48.066;20.976;2023-08-07T08:15:58;99526.81;;;21.21;89.08
76124;BME280;65173;48.066;20.976;2023-08-07T08:19:00;99532.34;;;21.06;92.76
76124;BME280;65173;48.066;20.976;2023-08-07T08:22:04;99531.41;;;21.61;84.96
76124;BME280;65173;48.066;20.976;2023-08-07T08:25:07;99533.94;;;22.36;89.20
76124;BME280;65173;48.066;20.976;2023-08-07T08:28:10;99535.72;;;21.55;85.45
76124;BME280;65173;48.066;20.976;2023-08-07T08:31:13;99533.69;;;21.29;84.14
76124;BME280;65173;48.066;20.976;2023-08-07T08:34:15;99530.97;;;20.84;90.46
76124;BME280;65173;48.066;20.976;2023-08-07T08:37:17;99540.16;;;21.38;85.01
76124;BME280;65173;48.066;20.976;2023-08-07T08:40:20;99551.13;;;23.27;86.08
76124;BME280;65173;48.066;20.976;2023-08-07T08:43:23;99538.38;;;24.55;84.22
76124;BME280;65173;48.066;20.976;2023-08-07T08:46:29;99528.34;;;24.68;68.68
76124;BME280;65173;48.066;20.976;2023-08-07T08:49:47;99541.91;;;25.62;75.50
76124;BME280;65173;48.066;20.976;2023-08-07T08:52:51;99545.78;;;23.00;77.76
76124;BME280;65173;48.066;20.976;2023-08-07T08:55:54;99544.41;;;22.61;75.55
76124;BME280;65173;48.066;20.976;2023-08-07T08:59:00;99548.44;;;21.28;83.39
76124;BME280;65173;48.066;20.976;2023-08-07T09:02:03;99549.41;;;21.00;90.60
76124;BME280;65173;48.066;20.976;2023-08-07T09:05:06;99547.56;;;20.34;90.82
76124;BME280;65173;48.066;20.976;2023-08-07T09:08:09;99539.88;;;20.26;99.09
76124;BME280;65173;48.066;20.976;2023-08-07T09:11:12;99549.25;;;20.73;89.84
76124;BME280;65173;48.066;20.976;2023-08-07T09:14:16;99544.63;;;20.73;86.41
76124;BME280;65173;48.066;20.976;2023-08-07T09:17:28;99544.19;;;21.27;81.67
76124;BME280;65173;48.066;20.976;2023-08-07T09:20:35;99548.31;;;21.72;82.61
76124;BME280;65173;48.066;20.976;2023-08-07T09:23:38;99559.31;;;21.92;81.98
76124;BME280;65173;48.066;20.976;2023-08-07T09:26:42;99553.03;;;21.31;85.38
76124;BME280;65173;48.066;20.976;2023-08-07T09:29:48;99545.34;;;20.19;90.14
76124;BME280;65173;48.066;20.976;2023-08-07T09:32:50;99551.25;;;21.13;83.71
76124;BME280;65173;48.066;20.976;2023-08-07T09:36:05;99556.84;;;20.33;87.78
76124;BME280;65173;48.066;20.976;2023-08-07T09:39:08;99562.72;;;20.21;89.89
76124;BME280;65173;48.066;20.976;2023-08-07T09:42:16;99566.22;;;20.15;87.20
76124;BME280;65173;48.066;20.976;2023-08-07T09:45:23;99565.63;;;19.71;86.91
76124;BME280;65173;48.066;20.976;2023-08-07T09:48:26;99573.09;;;20.26;87.75
76124;BME280;65173;48.066;20.976;2023-08-07T09:51:41;99572.63;;;21.01;85.00
76124;BME280;65173;48.066;20.976;2023-08-07T09:54:45;99572.16;;;21.13;83.22
76124;BME280;65173;48.066;20.976;2023-08-07T09:57:48;99579.84;;;20.70;82.74
76124;BME280;65173;48.066;20.976;2023-08-07T10:00:51;99582.78;;;20.93;81.71
76124;BME280;65173;48.066;20.976;2023-08-07T10:04:01;99580.00;;;20.97;81.37
76124;BME280;65173;48.066;20.976;2023-08-07T10:07:07;99579.81;;;20.77;82.82
76124;BME280;65173;48.066;20.976;2023-08-07T10:10:10;99585.09;;;20.95;83.49
76124;BME280;65173;48.066;20.976;2023-08-07T10:13:13;99587.41;;;20.93;82.66
76124;BME280;65173;48.066;20.976;2023-08-07T10:16:19;99593.50;;;20.52;81.42
76124;BME280;65173;48.066;20.976;2023-08-07T10:19:22;99584.88;;;20.68;82.43
76124;BME280;65173;48.066;20.976;2023-08-07T10:22:26;99598.13;;;22.50;78.54
76124;BME280;65173;48.066;20.976;2023-08-07T10:25:29;99597.66;;;23.09;74.18
76124;BME280;65173;48.066;20.976;2023-08-07T10:28:33;99612.03;;;21.57;76.87
76124;BME280;65173;48.066;20.976;2023-08-07T10:31:42;99613.81;;;20.82;78.81
76124;BME280;65173;48.066;20.976;2023-08-07T10:34:47;99614.47;;;20.27;82.53
76124;BME280;65173;48.066;20.976;2023-08-07T10:37:51;99624.13;;;21.01;79.78
76124;BME280;65173;48.066;20.976;2023-08-07T10:41:13;99628.63;;;21.18;75.84
76124;BME280;65173;48.066;20.976;2023-08-07T10:44:24;99624.84;;;22.55;76.48
76124;BME280;65173;48.066;20.976;2023-08-07T10:47:33;99633.19;;;21.73;82.00
76124;BME280;65173;48.066;20.976;2023-08-07T10:53:59;99646.31;;;20.82;77.93
76124;BME280;65173;48.066;20.976;2023-08-07T10:57:04;99645.41;;;20.36;79.43
76124;BME280;65173;48.066;20.976;2023-08-07T11:00:12;99639.06;;;20.64;77.48
76124;BME280;65173;48.066;20.976;2023-08-07T11:03:28;99650.72;;;21.65;78.89
76124;BME280;65173;48.066;20.976;2023-08-07T11:06:32;99651.59;;;21.51;77.27
76124;BME280;65173;48.066;20.976;2023-08-07T11:09:35;99650.03;;;21.02;76.16
76124;BME280;65173;48.066;20.976;2023-08-07T11:12:38;99654.56;;;21.15;75.74
76124;BME280;65173;48.066;20.976;2023-08-07T11:15:40;99658.94;;;21.92;75.10
76124;BME280;65173;48.066;20.976;2023-08-07T11:18:43;99659.31;;;21.04;76.63
76124;BME280;65173;48.066;20.976;2023-08-07T11:21:46;99672.13;;;21.90;71.57
76124;BME280;65173;48.066;20.976;2023-08-07T11:24:51;99674.91;;;20.86;72.05
76124;BME280;65173;48.066;20.976;2023-08-07T11:27:53;99672.81;;;21.11;71.36
76124;BME280;65173;48.066;20.976;2023-08-07T11:30:56;99682.34;;;20.75;74.60
76124;BME280;65173;48.066;20.976;2023-08-07T11:33:59;99687.81;;;20.64;78.80
76124;BME280;65173;48.066;20.976;2023-08-07T11:37:04;99680.19;;;21.11;76.55
76124;BME280;65173;48.066;20.976;2023-08-07T11:40:08;99689.81;;;21.23;76.71
76124;BME280;65173;48.066;20.976;2023-08-07T11:43:10;99669.47;;;20.02;76.59
76124;BME280;65173;48.066;20.976;2023-08-07T11:46:14;99698.13;;;19.61;80.84
76124;BME280;65173;48.066;20.976;2023-08-07T11:49:18;99692.31;;;19.09;81.73
76124;BME280;65173;48.066;20.976;2023-08-07T11:52:20;99699.63;;;19.23;77.64
76124;BME280;65173;48.066;20.976;2023-08-07T11:55:25;99703.75;;;20.48;79.80
76124;BME280;65173;48.066;20.976;2023-08-07T11:58:34;99695.84;;;21.44;73.12
76124;BME280;65173;48.066;20.976;2023-08-07T12:01:38;99702.63;;;20.42;75.88
76124;BME280;65173;48.066;20.976;2023-08-07T12:04:41;99704.09;;;20.57;75.45
76124;BME280;65173;48.066;20.976;2023-08-07T12:07:43;99701.22;;;20.93;75.69
76124;BME280;65173;48.066;20.976;2023-08-07T12:10:55;99715.22;;;21.39;71.42
76124;BME280;65173;48.066;20.976;2023-08-07T12:14:00;99713.09;;;20.15;73.98
76124;BME280;65173;48.066;20.976;2023-08-07T12:17:04;99715.13;;;19.61;78.48
76124;BME280;65173;48.066;20.976;2023-08-07T12:20:07;99732.47;;;19.28;79.66
76124;BME280;65173;48.066;20.976;2023-08-07T12:23:16;99725.13;;;19.15;79.85
76124;BME280;65173;48.066;20.976;2023-08-07T12:26:19;99725.00;;;18.68;79.94
76124;BME280;65173;48.066;20.976;2023-08-07T12:29:21;99717.44;;;19.84;77.45
76124;BME280;65173;48.066;20.976;2023-08-07T12:32:25;99717.84;;;20.91;73.48
76124;BME280;65173;48.066;20.976;2023-08-07T12:35:28;99729.88;;;20.83;71.41
76124;BME280;65173;48.066;20.976;2023-08-07T12:39:00;99738.31;;;19.87;74.93
76124;BME280;65173;48.066;20.976;2023-08-07T12:42:03;99727.06;;;19.46;76.79
76124;BME280;65173;48.066;20.976;2023-08-07T12:45:12;99736.91;;;20.73;74.80
76124;BME280;65173;48.066;20.976;2023-08-07T12:49:14;99743.25;;;20.14;74.91
76124;BME280;65173;48.066;20.976;2023-08-07T12:58:26;99747.97;;;21.00;72.61
76124;BME280;65173;48.066;20.976;2023-08-07T13:01:31;99750.78;;;20.86;71.67
76124;BME280;65173;48.066;20.976;2023-08-07T13:04:36;99754.09;;;20.24;75.73
76124;BME280;65173;48.066;20.976;2023-08-07T13:07:39;99746.00;;;19.53;73.65
76124;BME280;65173;48.066;20.976;2023-08-07T13:10:41;99747.44;;;20.54;72.08
76124;BME280;65173;48.066;20.976;2023-08-07T13:13:44;99761.06;;;20.04;73.91
76124;BME280;65173;48.066;20.976;2023-08-07T13:16:47;99746.41;;;19.76;74.34
76124;BME280;65173;48.066;20.976;2023-08-07T13:19:51;99755.63;;;20.22;75.74
76124;BME280;65173;48.066;20.976;2023-08-07T13:22:56;99744.41;;;20.41;74.59
76124;BME280;65173;48.066;20.976;2023-08-07T13:25:58;99746.91;;;20.87;72.08
76124;BME280;65173;48.066;20.976;2023-08-07T13:29:01;99768.44;;;21.12;69.57
76124;BME280;65173;48.066;20.976;2023-08-07T13:32:06;99761.13;;;21.02;71.34
76124;BME280;65173;48.066;20.976;2023-08-07T13:35:11;99754.09;;;19.89;76.51
76124;BME280;65173;48.066;20.976;2023-08-07T13:38:14;99755.25;;;20.16;76.67
76124;BME280;65173;48.066;20.976;2023-08-07T13:41:18;99756.44;;;20.01;72.78
76124;BME280;65173;48.066;20.976;2023-08-07T13:44:41;99763.69;;;20.50;73.64
76124;BME280;65173;48.066;20.976;2023-08-07T13:47:43;99771.47;;;20.37;75.87
76124;BME280;65173;48.066;20.976;2023-08-07T13:50:48;99777.66;;;20.20;73.42
76124;BME280;65173;48.066;20.976;2023-08-07T13:53:51;99784.63;;;20.07;73.66
76124;BME280;65173;48.066;20.976;2023-08-07T14:01:33;99788.13;;;19.68;75.49
76124;BME280;65173;48.066;20.976;2023-08-07T14:04:37;99793.53;;;20.04;74.64
76124;BME280;65173;48.066;20.976;2023-08-07T14:07:39;99778.84;;;19.98;78.06
76124;BME280;65173;48.066;20.976;2023-08-07T14:10:42;99779.16;;;20.46;74.83
76124;BME280;65173;48.066;20.976;2023-08-07T14:13:44;99779.97;;;20.18;75.21
76124;BME280;65173;48.066;20.976;2023-08-07T14:16:48;99773.31;;;20.65;75.30
76124;BME280;65173;48.066;20.976;2023-08-07T14:19:51;99776.47;;;20.35;74.80
76124;BME280;65173;48.066;20.976;2023-08-07T14:22:53;99785.34;;;20.43;74.44
76124;BME280;65173;48.066;20.976;2023-08-07T14:26:10;99788.38;;;20.73;73.97
76124;BME280;65173;48.066;20.976;2023-08-07T14:29:13;99784.63;;;20.18;74.60
76124;BME280;65173;48.066;20.976;2023-08-07T14:32:16;99788.91;;;19.51;77.18
76124;BME280;65173;48.066;20.976;2023-08-07T14:35:20;99793.91;;;20.13;76.51
76124;BME280;65173;48.066;20.976;2023-08-07T14:38:24;99790.31;;;20.66;75.61
76124;BME280;65173;48.066;20.976;2023-08-07T14:41:27;99795.06;;;20.23;78.56
76124;BME280;65173;48.066;20.976;2023-08-07T14:44:29;99801.59;;;20.43;75.37
76124;BME280;65173;48.066;20.976;2023-08-07T14:47:32;99794.31;;;20.04;73.87
76124;BME280;65173;48.066;20.976;2023-08-07T14:50:35;99801.25;;;19.77;75.21
76124;BME280;65173;48.066;20.976;2023-08-07T14:53:40;99803.97;;;19.66;77.07
76124;BME280;65173;48.066;20.976;2023-08-07T14:56:43;99796.63;;;19.63;76.57
76124;BME280;65173;48.066;20.976;2023-08-07T14:59:45;99809.75;;;19.75;78.18
76124;BME280;65173;48.066;20.976;2023-08-07T15:02:48;99809.16;;;18.92;80.91
76124;BME280;65173;48.066;20.976;2023-08-07T15:05:51;99814.19;;;19.00;81.91
76124;BME280;65173;48.066;20.976;2023-08-07T15:08:53;99806.94;;;19.22;82.04
76124;BME280;65173;48.066;20.976;2023-08-07T15:11:56;99812.72;;;19.14;80.77
76124;BME280;65173;48.066;20.976;2023-08-07T15:14:59;99814.28;;;19.15;80.17
76124;BME280;65173;48.066;20.976;2023-08-07T15:18:04;99814.25;;;19.07;80.14
76124;BME280;65173;48.066;20.976;2023-08-07T15:21:07;99808.81;;;18.97;81.52
76124;BME280;65173;48.066;20.976;2023-08-07T15:24:10;99808.81;;;19.04;80.58
76124;BME280;65173;48.066;20.976;2023-08-07T15:27:13;99807.97;;;18.82;82.65
76124;BME280;65173;48.066;20.976;2023-08-07T15:30:15;99798.38;;;18.95;82.36
76124;BME280;65173;48.066;20.976;2023-08-07T15:33:18;99805.97;;;18.68;86.67
76124;BME280;65173;48.066;20.976;2023-08-07T15:36:24;99806.22;;;18.49;86.01
76124;BME280;65173;48.066;20.976;2023-08-07T15:39:26;99810.88;;;18.52;85.48
76124;BME280;65173;48.066;20.976;2023-08-07T15:42:29;99824.06;;;18.61;86.31
76124;BME280;65173;48.066;20.976;2023-08-07T15:45:32;99812.22;;;18.21;87.23
76124;BME280;65173;48.066;20.976;2023-08-07T15:48:35;99806.47;;;17.72;91.76
76124;BME280;65173;48.066;20.976;2023-08-07T15:51:38;99821.13;;;17.41;92.31
